Time;durP1;ratioP1;P1;durP2;ratioP2;P2;SDS_P1;SDS_P2;PMS_P1;PMS_P2;Temp;Humidity;BMP_temperature;BMP_pressure;BME280_temperature;BME280_humidity;BME280_pressure;Samples;Min_cycle;Max_cycle;Signal;HPM_P1;HPM_P2
2022/03/27 00:01:24;;;;;;;5.65;3.78;;;25.50;30.10;;;;;;5031250;28;20869;-63
2022/03/27 00:03:50;;;;;;;3.70;3.20;;;25.40;30.00;;;;;;5031308;28;20422;-63
2022/03/27 00:06:16;;;;;;;4.60;3.40;;;25.40;30.00;;;;;;5031177;28;20868;-66
2022/03/27 00:08:41;;;;;;;4.50;3.50;;;25.40;30.10;;;;;;5030809;28;20406;-62
2022/03/27 00:11:26;;;;;;;4.90;3.80;;;25.40;30.00;;;;;;5031318;28;20544;-66
2022/03/27 00:13:54;;;;;;;4.18;3.33;;;25.40;30.00;;;;;;5031234;28;20450;-65
2022/03/27 00:16:20;;;;;;;4.03;3.50;;;25.30;30.00;;;;;;5049969;28;20383;-62
2022/03/27 00:18:47;;;;;;;4.05;3.30;;;25.30;30.00;;;;;;5034776;28;20399;-63
2022/03/27 00:21:13;;;;;;;3.85;3.10;;;25.30;29.90;;;;;;5035052;28;20414;-62
2022/03/27 00:23:39;;;;;;;4.22;3.20;;;25.30;29.90;;;;;;5035202;28;20391;-62
2022/03/27 00:26:04;;;;;;;4.50;3.33;;;25.30;30.00;;;;;;5035044;28;20387;-62
2022/03/27 00:28:33;;;;;;;3.90;3.50;;;25.30;30.00;;;;;;5034784;28;20395;-64
2022/03/27 00:31:00;;;;;;;3.92;3.53;;;25.20;30.00;;;;;;5034687;28;20521;-63
2022/03/27 00:33:27;;;;;;;4.03;3.40;;;25.20;30.00;;;;;;5033596;28;20421;-65
2022/03/27 00:35:54;;;;;;;3.78;3.38;;;25.20;29.90;;;;;;5034916;28;20386;-64
2022/03/27 00:38:19;;;;;;;3.85;3.30;;;25.20;30.00;;;;;;5034809;28;20395;-63
2022/03/27 00:40:45;;;;;;;4.13;3.30;;;25.10;29.90;;;;;;5034283;28;20386;-62
2022/03/27 00:43:11;;;;;;;4.65;3.63;;;25.20;30.00;;;;;;5034611;28;20394;-63
2022/03/27 00:45:37;;;;;;;3.78;3.38;;;25.20;29.90;;;;;;5034516;28;20898;-63
2022/03/27 00:48:03;;;;;;;3.97;3.50;;;25.10;29.80;;;;;;5034543;28;20391;-64
2022/03/27 00:50:30;;;;;;;4.50;3.28;;;25.10;29.60;;;;;;5034540;28;20887;-62
2022/03/27 00:52:57;;;;;;;3.90;3.20;;;25.10;29.60;;;;;;5034056;28;20494;-64
2022/03/27 00:55:23;;;;;;;3.90;3.28;;;25.10;29.70;;;;;;5034502;28;20387;-62
2022/03/27 00:57:48;;;;;;;4.10;3.20;;;25.10;29.70;;;;;;5034471;28;20449;-62
2022/03/27 01:00:35;;;;;;;4.43;3.73;;;25.00;29.70;;;;;;5033907;28;20391;-63
2022/03/27 01:03:01;;;;;;;4.25;3.58;;;25.00;29.70;;;;;;5033902;28;20742;-63
2022/03/27 01:05:28;;;;;;;3.83;3.20;;;25.00;29.80;;;;;;5034345;28;20387;-63
2022/03/27 01:07:53;;;;;;;4.70;3.40;;;25.00;29.80;;;;;;5034345;28;20383;-64
2022/03/27 01:10:24;;;;;;;3.72;3.33;;;25.00;29.80;;;;;;5034188;28;20405;-62
2022/03/27 01:12:51;;;;;;;4.78;3.40;;;25.00;29.90;;;;;;5033635;28;20422;-64
2022/03/27 01:15:33;;;;;;;3.70;3.10;;;25.00;29.80;;;;;;5034043;28;20399;-63
2022/03/27 01:17:59;;;;;;;3.70;3.17;;;24.90;29.70;;;;;;5032876;28;20895;-64
2022/03/27 01:20:40;;;;;;;3.90;3.20;;;25.00;29.80;;;;;;5033982;28;20403;-65
2022/03/27 01:23:11;;;;;;;4.32;3.30;;;24.90;29.80;;;;;;5033666;28;20474;-62
2022/03/27 01:25:39;;;;;;;3.78;3.25;;;24.90;29.80;;;;;;5032699;28;20394;-65
2022/03/27 01:28:06;;;;;;;3.40;3.07;;;24.90;29.70;;;;;;5033128;28;20387;-63
2022/03/27 01:30:32;;;;;;;4.15;3.20;;;24.90;29.70;;;;;;5032437;28;20402;-62
2022/03/27 01:32:58;;;;;;;3.78;3.33;;;24.80;29.70;;;;;;5033297;28;20415;-62
2022/03/27 01:35:24;;;;;;;3.72;3.20;;;24.80;29.70;;;;;;5033767;28;20391;-63
2022/03/27 01:37:50;;;;;;;3.72;3.10;;;24.80;29.70;;;;;;5033731;28;20894;-62
2022/03/27 01:40:17;;;;;;;4.57;3.20;;;24.80;29.70;;;;;;5033650;28;20891;-63
2022/03/27 01:42:43;;;;;;;4.20;3.33;;;24.80;29.70;;;;;;5033470;28;20426;-63
2022/03/27 01:45:10;;;;;;;4.15;3.30;;;24.80;29.70;;;;;;5033426;28;20542;-62
2022/03/27 01:47:36;;;;;;;3.65;3.13;;;24.80;29.70;;;;;;5033697;28;20464;-63
2022/03/27 01:50:04;;;;;;;3.67;3.15;;;24.80;29.70;;;;;;5033541;28;20391;-65
2022/03/27 01:52:30;;;;;;;3.35;2.83;;;24.80;29.70;;;;;;5033385;28;20436;-63
2022/03/27 01:54:56;;;;;;;3.60;2.90;;;24.70;29.60;;;;;;5033021;28;20482;-65
2022/03/27 01:57:21;;;;;;;3.38;2.75;;;24.70;29.50;;;;;;5033353;28;20401;-64
2022/03/27 01:59:47;;;;;;;4.15;3.22;;;24.70;29.50;;;;;;5033438;28;20871;-63
2022/03/27 02:02:13;;;;;;;3.60;2.90;;;24.70;29.50;;;;;;5033168;28;20391;-65
2022/03/27 02:04:39;;;;;;;3.23;2.93;;;24.70;29.50;;;;;;5033051;28;20399;-64
2022/03/27 02:07:04;;;;;;;3.85;3.22;;;24.70;29.60;;;;;;5032911;28;20451;-63
2022/03/27 02:09:30;;;;;;;3.47;3.17;;;24.60;29.50;;;;;;5033238;28;20426;-63
2022/03/27 02:11:56;;;;;;;3.72;3.08;;;24.70;29.60;;;;;;5033076;28;20886;-63
2022/03/27 02:14:21;;;;;;;4.13;3.40;;;24.60;29.50;;;;;;5033096;28;20392;-64
2022/03/27 02:16:47;;;;;;;3.70;3.20;;;24.60;29.60;;;;;;5032344;28;20867;-65
2022/03/27 02:19:13;;;;;;;3.30;3.00;;;24.60;29.50;;;;;;5032933;28;20512;-66
2022/03/27 02:21:41;;;;;;;4.13;3.10;;;24.60;29.60;;;;;;5033270;28;20879;-62
2022/03/27 02:24:10;;;;;;;3.27;2.83;;;24.60;29.60;;;;;;5032931;28;20462;-67
2022/03/27 02:26:43;;;;;;;4.03;3.45;;;24.60;29.50;;;;;;5032972;28;20388;-63
2022/03/27 02:29:13;;;;;;;3.85;3.40;;;24.60;29.60;;;;;;5032485;28;20391;-62
2022/03/27 02:31:39;;;;;;;3.90;3.20;;;24.50;29.60;;;;;;5032427;28;20471;-65
2022/03/27 02:34:05;;;;;;;3.75;3.10;;;24.50;29.60;;;;;;5032317;28;20487;-62
2022/03/27 02:36:31;;;;;;;3.88;3.22;;;24.50;29.60;;;;;;5032645;28;20813;-62
2022/03/27 02:38:57;;;;;;;3.83;3.08;;;24.50;29.60;;;;;;5031075;28;20912;-65
2022/03/27 02:41:23;;;;;;;4.20;3.17;;;24.50;29.60;;;;;;5031250;28;20434;-63
2022/03/27 02:43:48;;;;;;;3.72;3.38;;;24.50;29.60;;;;;;5047871;28;20900;-62
2022/03/27 02:46:14;;;;;;;4.27;3.13;;;24.40;29.60;;;;;;5032234;28;20903;-62
2022/03/27 02:48:39;;;;;;;3.80;3.20;;;24.40;29.50;;;;;;5032119;28;20406;-63
2022/03/27 02:51:05;;;;;;;4.50;3.40;;;24.40;29.50;;;;;;5032082;28;20395;-62
2022/03/27 02:53:31;;;;;;;4.05;3.33;;;24.40;29.50;;;;;;5032290;28;20882;-61
2022/03/27 02:55:57;;;;;;;3.88;2.97;;;24.40;29.50;;;;;;5032259;28;20493;-65
2022/03/27 02:58:23;;;;;;;3.63;3.23;;;24.40;29.50;;;;;;5032204;28;20480;-63
2022/03/27 03:00:48;;;;;;;3.60;2.97;;;24.40;29.40;;;;;;5031766;28;20441;-64
2022/03/27 03:03:14;;;;;;;3.73;3.33;;;24.30;29.40;;;;;;5047421;28;20445;-62
2022/03/27 03:05:42;;;;;;;4.22;3.17;;;24.30;29.40;;;;;;5032055;28;20443;-63
2022/03/27 03:08:11;;;;;;;3.60;3.20;;;24.30;29.40;;;;;;5031990;28;20388;-62
2022/03/27 03:10:40;;;;;;;3.80;3.38;;;24.30;29.30;;;;;;5032014;28;20864;-63
2022/03/27 03:13:07;;;;;;;3.40;3.10;;;24.30;29.40;;;;;;5031580;28;20430;-62
2022/03/27 03:15:33;;;;;;;3.67;3.17;;;24.30;29.40;;;;;;5032005;28;20387;-62
2022/03/27 03:17:59;;;;;;;3.72;3.03;;;24.30;29.40;;;;;;5031871;28;20437;-65
2022/03/27 03:20:25;;;;;;;4.83;3.50;;;24.30;29.40;;;;;;5031819;28;20391;-63
2022/03/27 03:22:51;;;;;;;4.50;3.35;;;24.30;29.50;;;;;;5031365;28;20459;-64
2022/03/27 03:25:17;;;;;;;4.00;3.10;;;24.30;29.40;;;;;;5031731;28;20399;-62
2022/03/27 03:27:42;;;;;;;3.80;3.40;;;24.20;29.30;;;;;;5031804;28;20402;-63
2022/03/27 03:30:10;;;;;;;4.45;3.40;;;24.20;29.30;;;;;;5031660;28;20913;-62
2022/03/27 03:32:36;;;;;;;3.90;3.50;;;24.20;29.30;;;;;;5030385;28;20419;-63
2022/03/27 03:35:03;;;;;;;3.72;3.30;;;24.20;29.30;;;;;;5031589;28;20391;-63
2022/03/27 03:37:29;;;;;;;3.70;3.28;;;24.20;29.30;;;;;;5031519;28;20398;-62
2022/03/27 03:39:55;;;;;;;3.70;3.27;;;24.20;29.30;;;;;;5031887;28;20387;-65
2022/03/27 03:42:20;;;;;;;3.63;3.25;;;24.20;29.30;;;;;;5031604;28;20399;-63
2022/03/27 03:44:46;;;;;;;4.10;3.43;;;24.20;29.30;;;;;;5031133;28;20792;-66
2022/03/27 03:47:11;;;;;;;4.10;3.40;;;24.10;29.20;;;;;;5031129;28;20391;-66
2022/03/27 03:49:38;;;;;;;3.58;3.17;;;24.10;29.20;;;;;;5031071;28;20391;-63
2022/03/27 03:52:05;;;;;;;3.75;3.35;;;24.10;29.20;;;;;;5031786;28;20906;-67
2022/03/27 03:54:30;;;;;;;4.07;3.20;;;24.10;29.20;;;;;;5031283;28;20403;-63
2022/03/27 03:56:56;;;;;;;3.63;3.03;;;24.00;29.20;;;;;;5031056;28;20387;-66
2022/03/27 03:59:21;;;;;;;4.45;3.33;;;24.00;29.20;;;;;;5031242;28;20441;-65
2022/03/27 04:01:47;;;;;;;3.83;3.37;;;24.00;29.20;;;;;;5031388;28;20532;-62
2022/03/27 04:04:13;;;;;;;3.83;3.27;;;24.00;29.20;;;;;;5030066;28;20391;-64
2022/03/27 04:06:38;;;;;;;4.80;3.53;;;24.00;29.20;;;;;;5031236;28;20391;-63
2022/03/27 04:09:04;;;;;;;3.97;3.20;;;24.00;29.20;;;;;;5046063;28;20399;-62
2022/03/27 04:11:29;;;;;;;4.07;3.40;;;24.00;29.20;;;;;;5031325;28;21053;-62
2022/03/27 04:13:55;;;;;;;3.88;3.38;;;24.00;29.20;;;;;;5031204;28;20419;-63
2022/03/27 04:16:21;;;;;;;4.13;3.17;;;24.00;29.10;;;;;;5031208;28;20398;-62
2022/03/27 04:18:47;;;;;;;4.32;3.50;;;24.00;29.10;;;;;;5031003;28;20440;-63
2022/03/27 04:21:12;;;;;;;3.90;3.20;;;24.00;29.10;;;;;;5030872;28;20391;-62
2022/03/27 04:23:38;;;;;;;3.70;3.08;;;23.90;29.10;;;;;;5046523;28;20410;-62
2022/03/27 04:26:04;;;;;;;3.97;3.40;;;23.90;29.10;;;;;;5031106;28;20387;-63
2022/03/27 04:28:30;;;;;;;3.83;3.30;;;23.90;29.10;;;;;;5031134;28;20426;-62
2022/03/27 04:30:56;;;;;;;4.38;3.42;;;23.90;29.00;;;;;;5030881;28;20383;-63
2022/03/27 04:33:22;;;;;;;4.97;3.38;;;23.90;29.00;;;;;;5030903;28;20441;-64
2022/03/27 04:35:47;;;;;;;4.27;3.50;;;23.90;29.00;;;;;;5031034;28;20800;-62
2022/03/27 04:38:14;;;;;;;3.80;3.40;;;23.90;29.00;;;;;;5030841;28;20959;-62
2022/03/27 04:40:40;;;;;;;3.95;3.40;;;23.90;29.50;;;;;;5031078;28;20419;-62
2022/03/27 04:43:06;;;;;;;4.10;3.28;;;23.90;29.10;;;;;;5030404;28;20426;-63
2022/03/27 04:45:32;;;;;;;3.93;3.13;;;23.90;29.10;;;;;;5030767;28;20733;-67
2022/03/27 04:47:58;;;;;;;3.83;3.40;;;23.80;29.00;;;;;;5031157;28;20406;-64
2022/03/27 04:50:23;;;;;;;3.58;3.05;;;23.80;29.00;;;;;;5030818;28;20391;-62
2022/03/27 04:52:49;;;;;;;4.40;3.30;;;23.80;29.10;;;;;;5030600;28;20484;-63
2022/03/27 04:55:15;;;;;;;4.00;3.60;;;23.80;29.10;;;;;;5030578;28;20386;-63
2022/03/27 04:57:44;;;;;;;3.77;3.30;;;23.80;29.00;;;;;;5030844;28;20435;-63
2022/03/27 05:00:11;;;;;;;3.70;3.13;;;23.80;29.00;;;;;;5030831;28;20383;-62
2022/03/27 05:02:38;;;;;;;4.50;3.47;;;23.80;29.00;;;;;;5032698;28;20489;-62
2022/03/27 05:05:05;;;;;;;3.70;3.25;;;23.80;29.00;;;;;;5033879;28;20460;-63
2022/03/27 05:07:31;;;;;;;3.80;3.22;;;23.80;29.00;;;;;;5034547;28;20842;-66
2022/03/27 05:09:57;;;;;;;3.80;3.20;;;23.80;28.90;;;;;;5035147;28;20475;-66
2022/03/27 05:12:22;;;;;;;4.73;3.83;;;23.70;28.90;;;;;;5034475;28;20403;-63
2022/03/27 05:14:48;;;;;;;4.10;3.38;;;23.70;28.90;;;;;;5033958;28;20448;-61
2022/03/27 05:17:14;;;;;;;3.77;3.33;;;23.70;28.90;;;;;;5034015;28;20462;-62
2022/03/27 05:19:41;;;;;;;4.15;3.75;;;23.70;28.90;;;;;;5034634;28;20473;-64
2022/03/27 05:22:07;;;;;;;4.00;3.60;;;23.70;28.90;;;;;;5034022;28;20894;-63
2022/03/27 05:24:33;;;;;;;3.90;3.45;;;23.70;28.90;;;;;;5049508;28;20419;-63
2022/03/27 05:26:59;;;;;;;3.97;3.45;;;23.70;28.90;;;;;;5048883;28;20391;-63
2022/03/27 05:29:25;;;;;;;4.40;3.38;;;23.70;28.90;;;;;;5034113;28;20398;-66
2022/03/27 05:31:51;;;;;;;4.10;3.40;;;23.70;28.90;;;;;;5033829;28;20387;-64
2022/03/27 05:34:18;;;;;;;3.85;3.42;;;23.70;28.90;;;;;;5049173;28;20768;-66
2022/03/27 05:36:45;;;;;;;3.97;3.50;;;23.70;29.00;;;;;;5033906;28;20383;-63
2022/03/27 05:39:11;;;;;;;4.27;3.67;;;23.70;29.00;;;;;;5033670;28;20403;-63
2022/03/27 05:41:37;;;;;;;3.70;3.30;;;23.60;28.90;;;;;;5033754;28;20391;-64
2022/03/27 05:44:03;;;;;;;4.07;3.38;;;23.60;28.90;;;;;;5033612;28;20893;-62
2022/03/27 05:46:29;;;;;;;4.10;3.30;;;23.60;28.90;;;;;;5033654;28;20938;-63
2022/03/27 05:48:54;;;;;;;4.25;3.25;;;23.60;28.90;;;;;;5033454;28;20387;-63
2022/03/27 05:51:20;;;;;;;3.73;3.27;;;23.60;28.90;;;;;;5033527;28;20751;-66
2022/03/27 05:53:45;;;;;;;3.85;3.20;;;23.60;28.90;;;;;;5033818;28;20415;-62
2022/03/27 05:56:11;;;;;;;4.10;3.30;;;23.50;28.90;;;;;;5033330;28;20426;-62
2022/03/27 05:58:39;;;;;;;4.40;3.50;;;23.50;28.90;;;;;;5033480;28;20457;-65
2022/03/27 06:01:06;;;;;;;3.75;3.30;;;23.50;28.80;;;;;;5032831;28;20478;-63
2022/03/27 06:03:32;;;;;;;3.85;2.90;;;23.60;28.80;;;;;;5033794;28;20554;-63
2022/03/27 06:05:58;;;;;;;4.72;3.40;;;23.60;28.70;;;;;;5033404;28;20807;-63
2022/03/27 06:08:24;;;;;;;3.87;3.27;;;23.60;28.70;;;;;;5031833;28;20437;-62
2022/03/27 06:10:50;;;;;;;3.67;2.97;;;23.60;28.70;;;;;;5033106;28;20864;-63
2022/03/27 06:13:16;;;;;;;3.33;3.03;;;23.50;28.80;;;;;;5032652;28;20426;-62
2022/03/27 06:15:42;;;;;;;3.63;3.10;;;23.60;28.80;;;;;;5033116;28;20870;-62
2022/03/27 06:18:11;;;;;;;4.20;3.28;;;23.60;28.80;;;;;;5033664;28;20397;-62
2022/03/27 06:20:38;;;;;;;3.78;3.10;;;23.60;28.80;;;;;;5033210;28;20390;-63
2022/03/27 06:23:04;;;;;;;3.53;3.20;;;23.60;28.90;;;;;;5031177;28;20406;-63
2022/03/27 06:25:30;;;;;;;4.28;3.33;;;23.50;28.80;;;;;;5032847;28;20383;-62
2022/03/27 06:27:57;;;;;;;3.90;3.20;;;23.50;28.80;;;;;;5033101;28;20819;-66
2022/03/27 06:30:27;;;;;;;3.58;3.20;;;23.60;28.90;;;;;;5032789;28;20391;-66
2022/03/27 06:32:53;;;;;;;3.92;3.30;;;23.50;28.80;;;;;;5032403;28;20465;-62
2022/03/27 06:35:21;;;;;;;3.70;3.30;;;23.50;28.80;;;;;;5032492;28;20401;-62
2022/03/27 06:37:47;;;;;;;3.78;3.30;;;23.50;28.80;;;;;;5032548;28;20803;-62
2022/03/27 06:40:15;;;;;;;4.32;3.35;;;23.50;28.90;;;;;;5032502;28;20406;-63
2022/03/27 06:42:42;;;;;;;4.07;3.28;;;23.50;28.90;;;;;;5032576;28;20430;-65
2022/03/27 06:45:08;;;;;;;4.97;3.92;;;23.50;28.90;;;;;;5031873;28;20403;-64
2022/03/27 06:47:34;;;;;;;5.18;4.13;;;23.60;28.90;;;;;;5032420;28;20437;-63
2022/03/27 06:50:02;;;;;;;4.63;3.77;;;23.50;28.40;;;;;;5032382;28;20399;-64
2022/03/27 06:52:28;;;;;;;6.80;4.00;;;23.40;27.90;;;;;;5032330;28;20469;-64
2022/03/27 06:54:55;;;;;;;6.15;3.88;;;23.30;28.40;;;;;;5047450;28;20475;-62
2022/03/27 06:57:21;;;;;;;5.37;3.60;;;23.30;29.10;;;;;;5031909;28;20403;-63
2022/03/27 07:05:17;;;;;;;5.72;3.55;;;23.30;29.20;;;;;;5031885;28;20537;-63
2022/03/27 07:07:43;;;;;;;5.70;3.80;;;23.20;29.60;;;;;;5033326;28;20395;-62
2022/03/27 07:10:10;;;;;;;6.50;3.75;;;23.20;29.80;;;;;;5031953;28;20391;-64
2022/03/27 07:12:36;;;;;;;6.10;3.55;;;23.30;30.00;;;;;;5031853;28;20418;-66
2022/03/27 07:15:06;;;;;;;6.25;3.50;;;23.20;30.00;;;;;;5031623;28;20395;-63
2022/03/27 07:17:31;;;;;;;7.43;3.55;;;23.30;30.10;;;;;;5032017;28;20469;-63
2022/03/27 07:19:57;;;;;;;9.52;3.90;;;23.30;31.10;;;;;;5033640;28;20434;-63
2022/03/27 07:22:23;;;;;;;8.52;3.72;;;23.40;31.50;;;;;;5032727;28;20406;-64
2022/03/27 07:24:52;;;;;;;7.75;3.75;;;23.40;32.20;;;;;;5031415;28;20461;-64
2022/03/27 07:27:17;;;;;;;9.07;3.53;;;23.50;32.20;;;;;;5031500;28;20476;-63
2022/03/27 07:29:43;;;;;;;8.88;3.35;;;23.50;33.40;;;;;;5031894;28;20415;-63
2022/03/27 07:32:11;;;;;;;6.63;3.50;;;23.50;34.50;;;;;;5031957;28;20415;-64
2022/03/27 07:34:37;;;;;;;6.80;3.50;;;23.60;35.30;;;;;;5031675;28;20763;-65
2022/03/27 07:37:03;;;;;;;7.45;3.25;;;23.70;34.50;;;;;;5031085;28;20743;-63
2022/03/27 07:39:30;;;;;;;5.15;2.97;;;23.60;35.70;;;;;;5031589;28;20474;-63
2022/03/27 07:41:55;;;;;;;5.68;3.15;;;23.70;35.10;;;;;;5031723;28;20872;-63
2022/03/27 07:44:21;;;;;;;5.72;3.20;;;23.70;34.30;;;;;;5031435;28;20441;-63
2022/03/27 07:46:48;;;;;;;4.77;3.30;;;23.70;34.00;;;;;;5032186;28;20383;-63
2022/03/27 07:49:14;;;;;;;6.30;2.95;;;23.80;33.60;;;;;;5030855;28;20391;-63
2022/03/27 07:51:40;;;;;;;7.43;3.30;;;23.80;35.10;;;;;;5030323;28;20945;-63
2022/03/27 07:54:05;;;;;;;6.07;3.40;;;23.90;33.70;;;;;;5031328;28;20498;-63
2022/03/27 07:56:31;;;;;;;9.70;3.40;;;23.90;34.20;;;;;;5031498;28;20425;-63
2022/03/27 07:58:57;;;;;;;6.70;3.30;;;24.00;34.60;;;;;;5031097;28;20439;-63
2022/03/27 08:01:23;;;;;;;5.77;3.00;;;24.00;33.60;;;;;;5030894;28;20383;-63
2022/03/27 08:03:50;;;;;;;5.22;3.20;;;24.00;34.10;;;;;;5029949;28;21069;-63
2022/03/27 08:06:16;;;;;;;7.18;3.08;;;24.10;33.70;;;;;;5031358;28;20395;-64
2022/03/27 08:08:42;;;;;;;5.78;2.95;;;24.10;33.50;;;;;;5031172;28;20422;-65
2022/03/27 08:11:08;;;;;;;5.28;3.20;;;24.10;34.00;;;;;;5029125;28;20415;-63
2022/03/27 08:13:34;;;;;;;8.73;3.40;;;24.20;33.30;;;;;;5029646;28;20419;-66
2022/03/27 08:16:00;;;;;;;5.20;3.03;;;24.20;32.90;;;;;;5029889;28;20391;-64
2022/03/27 08:18:26;;;;;;;5.00;3.10;;;24.30;32.10;;;;;;5013121;28;20564;-64
2022/03/27 08:20:52;;;;;;;4.65;3.20;;;24.30;31.60;;;;;;5009449;28;20393;-64
2022/03/27 08:23:18;;;;;;;4.65;3.00;;;24.30;31.20;;;;;;5014992;28;20487;-64
2022/03/27 08:28:28;;;;;;;4.90;3.03;;;24.40;31.00;;;;;;5030835;28;20403;-64
2022/03/27 08:30:53;;;;;;;6.80;2.90;;;24.40;31.00;;;;;;5032504;28;20387;-64
2022/03/27 08:33:19;;;;;;;6.37;2.90;;;24.40;30.70;;;;;;5031988;28;20426;-64
2022/03/27 08:35:46;;;;;;;5.20;3.08;;;24.50;31.00;;;;;;5030816;28;20399;-65
2022/03/27 08:38:15;;;;;;;7.72;3.45;;;24.50;30.10;;;;;;5029440;28;20919;-65
2022/03/27 08:40:43;;;;;;;10.33;3.87;;;24.60;29.80;;;;;;5035132;28;20389;-63
2022/03/27 08:43:14;;;;;;;8.48;5.10;;;24.60;29.70;;;;;;5035862;28;20395;-65
2022/03/27 08:45:40;;;;;;;9.68;4.90;;;24.50;29.20;;;;;;5036176;28;20552;-64
2022/03/27 08:48:07;;;;;;;12.55;5.68;;;24.60;29.00;;;;;;5035554;28;20729;-64
2022/03/27 08:50:58;;;;;;;9.77;5.20;;;24.60;28.60;;;;;;5050621;28;20442;-63
2022/03/27 08:53:51;;;;;;;8.57;4.68;;;24.60;28.60;;;;;;5043247;28;20966;-65
2022/03/27 08:56:18;;;;;;;8.32;4.80;;;24.60;28.70;;;;;;5037088;28;20440;-64
2022/03/27 08:58:44;;;;;;;10.52;4.88;;;24.70;28.60;;;;;;5037277;28;20806;-65
2022/03/27 09:01:11;;;;;;;8.85;4.10;;;24.70;28.90;;;;;;5045847;28;20386;-64
2022/03/27 09:03:37;;;;;;;7.28;3.90;;;24.70;28.80;;;;;;5045323;28;20870;-64
2022/03/27 09:06:08;;;;;;;7.45;4.20;;;24.80;28.80;;;;;;5038556;28;20399;-64
2022/03/27 09:08:34;;;;;;;6.60;3.70;;;24.80;28.80;;;;;;5049924;28;20968;-65
2022/03/27 09:11:01;;;;;;;7.10;3.83;;;24.90;28.80;;;;;;5040037;28;20412;-64
2022/03/27 09:13:27;;;;;;;6.57;3.95;;;24.90;28.80;;;;;;5043950;28;20918;-64
2022/03/27 09:16:00;;;;;;;4.00;3.40;;;25.00;28.90;;;;;;5033273;28;20954;-64
2022/03/27 09:18:26;;;;;;;5.75;3.55;;;25.00;28.80;;;;;;5035205;28;20830;-64
2022/03/27 09:20:53;;;;;;;6.07;3.75;;;25.10;28.70;;;;;;5034457;28;20467;-63
2022/03/27 09:23:25;;;;;;;6.65;3.80;;;25.10;28.70;;;;;;5034039;28;20403;-64
2022/03/27 09:25:59;;;;;;;5.03;3.40;;;25.20;28.70;;;;;;5033139;28;20391;-64
2022/03/27 09:28:29;;;;;;;5.47;3.60;;;25.20;28.60;;;;;;5034633;28;20395;-64
2022/03/27 09:30:57;;;;;;;3.95;3.08;;;25.30;28.60;;;;;;5031875;28;20379;-64
2022/03/27 09:33:37;;;;;;;5.90;3.55;;;25.40;28.70;;;;;;5034418;28;20441;-64
2022/03/27 09:36:11;;;;;;;5.93;3.47;;;25.40;28.50;;;;;;5033195;28;20391;-64
2022/03/27 09:38:38;;;;;;;5.18;3.60;;;25.50;28.50;;;;;;5036032;28;20459;-63
2022/03/27 09:41:05;;;;;;;5.25;3.50;;;25.50;28.50;;;;;;5034277;28;20437;-63
2022/03/27 09:43:31;;;;;;;4.35;3.30;;;25.60;28.50;;;;;;5034067;28;20395;-63
2022/03/27 09:45:59;;;;;;;6.27;3.37;;;25.70;28.50;;;;;;5034275;28;20763;-64
2022/03/27 09:48:26;;;;;;;3.80;3.20;;;25.70;28.40;;;;;;5035225;28;20398;-64
2022/03/27 09:50:53;;;;;;;4.82;3.00;;;25.80;28.40;;;;;;5034243;28;20375;-63
2022/03/27 09:53:26;;;;;;;3.92;3.00;;;25.80;28.30;;;;;;5033397;28;20807;-63
2022/03/27 09:56:14;;;;;;;4.45;3.47;;;25.90;28.20;;;;;;5033709;28;20474;-64
2022/03/27 09:58:46;;;;;;;5.28;3.30;;;26.00;28.20;;;;;;5034066;28;20815;-63
2022/03/27 10:01:26;;;;;;;4.47;3.38;;;26.00;28.10;;;;;;5033171;28;20879;-65
2022/03/27 10:04:13;;;;;;;5.80;3.65;;;26.10;28.20;;;;;;5036700;28;20457;-63
2022/03/27 10:06:40;;;;;;;5.50;3.30;;;26.20;28.00;;;;;;5034294;28;20468;-64
2022/03/27 10:09:11;;;;;;;4.70;3.00;;;26.20;28.00;;;;;;5033092;28;20488;-65
2022/03/27 10:11:39;;;;;;;5.30;3.35;;;26.30;28.00;;;;;;5031818;28;20395;-64
2022/03/27 10:14:06;;;;;;;5.25;3.30;;;26.40;27.90;;;;;;5031861;28;20423;-63
2022/03/27 10:16:42;;;;;;;5.65;3.30;;;26.50;27.90;;;;;;5033402;28;20474;-63
2022/03/27 10:19:28;;;;;;;3.30;2.90;;;26.60;27.90;;;;;;5032647;28;20938;-63
2022/03/27 10:21:55;;;;;;;4.00;2.80;;;26.70;27.90;;;;;;5032823;28;20871;-64
2022/03/27 10:24:25;;;;;;;5.32;3.15;;;26.70;27.80;;;;;;5033655;28;20398;-64
2022/03/27 10:26:55;;;;;;;5.05;2.83;;;26.80;27.80;;;;;;5030045;28;20402;-64
2022/03/27 10:29:22;;;;;;;3.80;2.90;;;26.90;27.80;;;;;;5032535;28;20391;-64
2022/03/27 10:31:48;;;;;;;3.67;2.70;;;26.90;27.80;;;;;;5032885;28;20431;-63
2022/03/27 10:34:14;;;;;;;4.07;2.83;;;27.00;27.70;;;;;;5033778;28;20501;-64
2022/03/27 10:36:49;;;;;;;4.05;2.90;;;27.10;27.80;;;;;;5034165;28;20741;-64
2022/03/27 10:39:28;;;;;;;4.47;3.10;;;27.20;27.80;;;;;;5027965;28;20399;-63
2022/03/27 10:42:14;;;;;;;4.00;3.10;;;27.20;27.70;;;;;;5030114;28;20383;-64
2022/03/27 10:45:08;;;;;;;3.75;3.00;;;27.30;27.70;;;;;;5030839;28;20390;-64
2022/03/27 10:47:34;;;;;;;3.83;3.00;;;27.40;27.60;;;;;;5029851;28;20395;-64
2022/03/27 10:50:04;;;;;;;3.55;2.88;;;27.50;27.60;;;;;;5032374;28;20380;-64
2022/03/27 10:52:43;;;;;;;4.30;2.90;;;27.50;27.60;;;;;;5032332;28;20415;-64
2022/03/27 10:55:16;;;;;;;3.85;2.70;;;27.50;27.50;;;;;;5032622;28;20396;-64
2022/03/27 10:57:46;;;;;;;3.92;2.90;;;27.60;27.50;;;;;;5032650;28;20465;-64
2022/03/27 11:00:13;;;;;;;3.60;2.67;;;27.70;27.50;;;;;;5031934;28;20387;-64
2022/03/27 11:02:50;;;;;;;3.03;2.65;;;27.80;27.40;;;;;;5030379;28;20417;-64
2022/03/27 11:05:36;;;;;;;3.30;2.67;;;27.80;27.40;;;;;;5029773;28;20751;-64
2022/03/27 11:08:17;;;;;;;3.28;2.90;;;27.90;27.40;;;;;;5030884;28;20436;-64
2022/03/27 11:10:51;;;;;;;3.50;2.55;;;28.00;27.40;;;;;;5032354;28;20472;-64
2022/03/27 11:13:26;;;;;;;3.85;2.85;;;28.10;27.40;;;;;;5029424;28;21027;-64
2022/03/27 11:16:04;;;;;;;3.30;2.73;;;28.20;27.30;;;;;;5029692;28;20386;-64
2022/03/27 11:18:45;;;;;;;3.70;2.75;;;28.20;27.30;;;;;;5034373;28;20898;-63
2022/03/27 11:21:12;;;;;;;3.20;2.83;;;28.30;27.20;;;;;;5031786;28;20406;-64
2022/03/27 11:23:39;;;;;;;3.70;2.67;;;28.40;27.20;;;;;;5031650;28;20763;-64
2022/03/27 11:26:27;;;;;;;3.90;2.42;;;28.40;27.10;;;;;;5031888;28;20867;-64
2022/03/27 11:28:59;;;;;;;3.00;2.67;;;28.50;27.10;;;;;;5022539;28;20450;-65
2022/03/27 11:31:33;;;;;;;3.22;2.72;;;28.60;27.10;;;;;;5031408;28;20392;-63
2022/03/27 11:34:05;;;;;;;3.40;2.60;;;28.60;27.00;;;;;;5031026;28;20430;-64
2022/03/27 11:36:31;;;;;;;3.63;2.90;;;28.70;27.00;;;;;;5033210;28;20422;-64
2022/03/27 11:39:04;;;;;;;3.50;2.75;;;28.70;27.00;;;;;;5031519;28;20431;-64
2022/03/27 11:41:43;;;;;;;3.33;2.60;;;28.80;27.00;;;;;;5031035;28;20399;-64
2022/03/27 11:45:06;;;;;;;4.28;2.78;;;28.80;26.90;;;;;;5031683;28;20462;-64
2022/03/27 11:47:20;;;;;;;13.32;7.20;;;28.80;27.20;;;;;;5030935;28;20422;-64
2022/03/27 11:49:47;;;;;;;13.20;6.63;;;28.30;25.80;;;;;;5031541;28;20445;-66
2022/03/27 11:52:15;;;;;;;13.35;6.80;;;27.80;25.60;;;;;;5030112;28;20478;-67
2022/03/27 11:54:41;;;;;;;11.13;7.20;;;27.40;25.50;;;;;;5029877;28;20773;-66
2022/03/27 11:57:08;;;;;;;10.80;7.00;;;27.00;25.40;;;;;;5031141;28;20419;-66
2022/03/27 11:59:53;;;;;;;11.20;7.20;;;26.80;25.50;;;;;;5030741;28;20508;-67
2022/03/27 12:02:22;;;;;;;13.43;7.15;;;26.70;25.30;;;;;;5030156;28;20391;-64
2022/03/27 12:04:54;;;;;;;10.88;6.78;;;26.50;25.40;;;;;;5031468;28;20402;-64
2022/03/27 12:07:21;;;;;;;11.07;6.28;;;26.40;25.70;;;;;;5029329;28;20395;-64
2022/03/27 12:09:56;;;;;;;8.60;5.70;;;26.40;26.10;;;;;;5031560;28;20414;-66
2022/03/27 12:12:22;;;;;;;9.48;5.63;;;26.30;26.30;;;;;;5036854;28;20406;-64
2022/03/27 12:15:00;;;;;;;7.40;4.90;;;26.40;26.60;;;;;;5035897;28;20949;-66
2022/03/27 12:17:32;;;;;;;8.00;4.95;;;26.40;26.60;;;;;;5034817;28;20385;-65
2022/03/27 12:20:09;;;;;;;8.53;4.70;;;26.30;26.80;;;;;;5033447;28;20390;-65
2022/03/27 12:22:38;;;;;;;7.18;4.43;;;26.20;26.90;;;;;;5036457;28;20385;-68
2022/03/27 12:25:07;;;;;;;7.75;4.43;;;26.20;27.20;;;;;;5034668;28;20807;-66
2022/03/27 12:30:18;;;;;;;6.70;3.97;;;26.20;27.40;;;;;;5033879;28;20418;-65
2022/03/27 12:32:45;;;;;;;5.63;4.03;;;26.10;27.40;;;;;;5035630;28;20437;-64
2022/03/27 12:35:11;;;;;;;5.72;3.95;;;26.10;27.50;;;;;;5034377;28;20449;-64
2022/03/27 12:37:44;;;;;;;6.47;3.90;;;26.00;27.50;;;;;;5034279;28;20386;-65
2022/03/27 12:40:10;;;;;;;5.88;4.03;;;26.00;27.60;;;;;;5034400;28;20759;-66
2022/03/27 12:42:43;;;;;;;4.60;3.60;;;25.90;27.60;;;;;;5036037;28;20405;-66
2022/03/27 12:45:33;;;;;;;7.65;4.00;;;25.90;27.60;;;;;;5032926;28;20411;-64
2022/03/27 12:48:20;;;;;;;6.45;3.80;;;27.10;33.10;;;;;;5033512;28;20391;-66
2022/03/27 12:50:53;;;;;;;11.77;4.40;;;27.80;29.80;;;;;;5034524;28;20386;-65
2022/03/27 12:53:22;;;;;;;9.10;4.60;;;27.90;29.00;;;;;;5031015;28;20548;-66
2022/03/27 12:55:49;;;;;;;8.00;4.38;;;27.40;27.40;;;;;;5033166;28;20401;-66
2022/03/27 12:58:33;;;;;;;12.27;4.68;;;27.00;28.20;;;;;;5034631;28;20403;-67
2022/03/27 13:01:18;;;;;;;8.47;4.60;;;26.60;28.50;;;;;;5032765;28;20391;-63
2022/03/27 13:04:10;;;;;;;9.05;4.80;;;26.50;29.40;;;;;;5015642;28;20395;-64